createdAt,value
2017-01-08T00:00:22.647Z,3.26
2017-01-08T00:01:22.657Z,3.23
2017-01-08T00:02:22.669Z,3.32
2017-01-08T00:03:22.702Z,3.29
2017-01-08T00:04:22.683Z,3.29
2017-01-08T00:05:22.700Z,3.28
2017-01-08T00:06:22.701Z,3.28
2017-01-08T00:07:22.714Z,3.29
2017-01-08T00:08:22.727Z,3.32
2017-01-08T00:09:22.735Z,3.25
2017-01-08T00:10:22.739Z,3.26
2017-01-08T00:11:22.752Z,3.28
2017-01-08T00:12:22.764Z,3.28
2017-01-08T00:13:22.767Z,3.29
2017-01-08T00:14:22.777Z,3.26
2017-01-08T00:15:22.794Z,3.25
2017-01-08T00:16:22.797Z,3.26
2017-01-08T00:17:22.809Z,3.29
2017-01-08T00:18:22.817Z,3.23
2017-01-08T00:19:22.824Z,3.36
2017-01-08T00:20:22.834Z,3.31
2017-01-08T00:21:22.841Z,3.29
2017-01-08T00:22:22.851Z,3.26
2017-01-08T00:23:22.864Z,3.4
2017-01-08T00:24:22.869Z,3.28
2017-01-08T00:25:22.884Z,3.32
2017-01-08T00:26:22.887Z,3.23
2017-01-08T00:27:22.902Z,3.36
2017-01-08T00:28:22.914Z,3.37
2017-01-08T00:29:22.919Z,3.28
2017-01-08T00:30:22.929Z,3.31
2017-01-08T00:31:22.937Z,3.31
2017-01-08T00:32:22.947Z,3.31
2017-01-08T00:33:22.962Z,3.41
2017-01-08T00:34:22.966Z,3.29
2017-01-08T00:35:22.974Z,3.4
2017-01-08T00:36:22.984Z,3.44
2017-01-08T00:37:22.999Z,3.44
2017-01-08T00:38:23.007Z,3.36
2017-01-08T00:39:23.014Z,3.4
2017-01-08T00:40:23.030Z,3.4
2017-01-08T00:41:23.032Z,3.4
2017-01-08T00:42:23.039Z,3.45
2017-01-08T00:43:23.477Z,3.48
2017-01-08T00:44:23.064Z,3.45
2017-01-08T00:45:23.070Z,3.42
2017-01-08T00:46:23.075Z,3.42
2017-01-08T00:47:23.088Z,3.4
2017-01-08T00:48:23.095Z,3.48
2017-01-08T00:49:23.109Z,3.44
2017-01-08T00:50:23.116Z,3.47
2017-01-08T00:51:23.124Z,3.48
2017-01-08T00:52:23.135Z,3.41
2017-01-08T00:53:23.147Z,3.44
2017-01-08T00:54:23.158Z,3.51
2017-01-08T00:55:23.166Z,3.44
2017-01-08T00:56:23.172Z,3.48
2017-01-08T00:57:23.180Z,3.51
2017-01-08T00:58:23.192Z,3.44
2017-01-08T00:59:23.199Z,3.44
2017-01-08T01:00:23.207Z,3.47
2017-01-08T01:01:23.219Z,3.48
2017-01-08T01:02:23.230Z,3.51
2017-01-08T01:03:23.241Z,3.51
2017-01-08T01:04:23.244Z,3.55
2017-01-08T01:05:23.256Z,3.45
2017-01-08T01:06:23.272Z,3.5
2017-01-08T01:07:23.279Z,3.51
2017-01-08T01:08:23.288Z,3.45
2017-01-08T01:09:23.304Z,3.55
2017-01-08T01:10:23.309Z,3.62
2017-01-08T01:11:23.323Z,3.5
2017-01-08T01:12:23.730Z,3.5
2017-01-08T01:13:23.346Z,3.5
2017-01-08T01:14:23.343Z,3.53
2017-01-08T01:15:23.354Z,3.5
2017-01-08T01:16:23.361Z,3.53
2017-01-08T01:17:23.373Z,3.59
2017-01-08T01:18:23.380Z,3.66
2017-01-08T01:19:23.415Z,3.66
2017-01-08T01:20:23.399Z,3.58
2017-01-08T01:21:23.407Z,3.55
2017-01-08T01:22:23.421Z,3.51
2017-01-08T01:23:23.430Z,3.55
2017-01-08T01:24:23.472Z,3.66
2017-01-08T01:25:23.447Z,3.65
2017-01-08T01:26:23.460Z,3.66
2017-01-08T01:27:23.474Z,3.6
2017-01-08T01:28:23.487Z,3.68
2017-01-08T01:29:23.495Z,3.65
2017-01-08T01:30:23.504Z,3.63
2017-01-08T01:31:23.509Z,3.56
2017-01-08T01:32:23.516Z,3.53
2017-01-08T01:33:23.523Z,3.62
2017-01-08T01:34:23.533Z,3.53
2017-01-08T01:35:23.542Z,3.59
2017-01-08T01:36:23.553Z,3.55
2017-01-08T01:37:23.563Z,3.63
2017-01-08T01:38:23.574Z,3.65
2017-01-08T01:39:23.577Z,3.65
2017-01-08T01:40:23.591Z,3.65
2017-01-08T01:41:23.602Z,3.68
2017-01-08T01:42:23.615Z,3.58
2017-01-08T01:43:23.622Z,3.65
2017-01-08T01:44:23.633Z,3.7
2017-01-08T01:45:23.642Z,3.68
2017-01-08T01:46:23.650Z,3.69
2017-01-08T01:47:23.665Z,3.73
2017-01-08T01:48:23.666Z,3.69
2017-01-08T01:49:23.681Z,3.65
2017-01-08T01:50:23.685Z,3.66
2017-01-08T01:51:23.698Z,3.62
2017-01-08T01:52:23.705Z,3.68
2017-01-08T01:53:23.718Z,3.66
2017-01-08T01:54:23.726Z,3.62
2017-01-08T01:55:23.733Z,3.69
2017-01-08T01:56:23.748Z,3.76
2017-01-08T01:57:23.755Z,3.6
2017-01-08T01:58:23.763Z,3.6
2017-01-08T01:59:23.770Z,3.65
2017-01-08T02:00:23.783Z,3.7
2017-01-08T02:01:23.790Z,3.73
2017-01-08T02:02:23.808Z,3.63
2017-01-08T02:03:23.848Z,3.7
2017-01-08T02:04:23.822Z,3.7
2017-01-08T02:05:23.827Z,3.69
2017-01-08T02:06:23.848Z,3.78
2017-01-08T02:07:23.854Z,3.76
2017-01-08T02:08:23.858Z,3.7
2017-01-08T02:09:23.867Z,3.76
2017-01-08T02:10:23.886Z,3.8
2017-01-08T02:11:23.894Z,3.7
2017-01-08T02:12:23.901Z,3.8
2017-01-08T02:13:23.938Z,3.78
2017-01-08T02:14:23.917Z,3.65
2017-01-08T02:15:23.934Z,3.83
2017-01-08T02:16:23.936Z,3.83
2017-01-08T02:17:23.948Z,3.78
2017-01-08T02:18:23.956Z,3.77
2017-01-08T02:19:23.964Z,3.8
2017-01-08T02:20:23.987Z,3.69
2017-01-08T02:21:24.016Z,3.77
2017-01-08T02:22:23.993Z,3.78
2017-01-08T02:23:24.009Z,3.87
2017-01-08T02:24:24.014Z,3.86
2017-01-08T02:25:24.027Z,3.77
2017-01-08T02:26:24.030Z,3.86
2017-01-08T02:27:24.039Z,3.84
2017-01-08T02:28:24.218Z,3.78
2017-01-08T02:29:24.057Z,3.78
2017-01-08T02:30:24.067Z,3.81
2017-01-08T02:31:24.075Z,3.81
2017-01-08T02:32:24.089Z,3.78
2017-01-08T02:33:24.101Z,3.83
2017-01-08T02:34:24.105Z,3.84
2017-01-08T02:35:24.121Z,3.83
2017-01-08T02:36:24.128Z,3.77
2017-01-08T02:37:24.142Z,3.78
2017-01-08T02:38:24.186Z,3.84
2017-01-08T02:39:24.156Z,3.77
2017-01-08T02:40:24.172Z,3.78
2017-01-08T02:41:24.197Z,3.8
2017-01-08T02:42:24.179Z,3.78
2017-01-08T02:43:24.193Z,3.81
2017-01-08T02:44:24.203Z,3.86
2017-01-08T02:45:24.213Z,3.74
2017-01-08T02:46:24.227Z,3.77
2017-01-08T02:47:24.232Z,3.87
2017-01-08T02:48:24.251Z,3.86
2017-01-08T02:49:24.256Z,3.87
2017-01-08T02:50:24.261Z,3.78
2017-01-08T02:51:24.273Z,3.84
2017-01-08T02:52:24.277Z,3.88
2017-01-08T02:53:24.294Z,3.92
2017-01-08T02:54:24.300Z,3.81
2017-01-08T02:55:24.309Z,3.78
2017-01-08T02:56:24.339Z,3.83
2017-01-08T02:57:24.330Z,3.78
2017-01-08T02:58:24.336Z,3.88
2017-01-08T02:59:24.343Z,3.91
2017-01-08T03:00:24.360Z,3.76
2017-01-08T03:01:24.375Z,3.87
2017-01-08T03:02:24.376Z,3.88
2017-01-08T03:03:24.394Z,3.87
2017-01-08T03:04:24.397Z,3.84
2017-01-08T03:05:24.405Z,3.88
2017-01-08T03:06:24.412Z,3.81
2017-01-08T03:07:24.429Z,3.86
2017-01-08T03:08:24.430Z,3.81
2017-01-08T03:09:24.449Z,3.88
2017-01-08T03:10:24.452Z,3.84
2017-01-08T03:11:24.467Z,3.91
2017-01-08T03:12:24.472Z,3.87
2017-01-08T03:13:24.479Z,3.86
2017-01-08T03:14:24.490Z,3.91
2017-01-08T03:15:24.506Z,3.94
2017-01-08T03:16:24.512Z,3.87
2017-01-08T03:17:24.517Z,3.87
2017-01-08T03:18:24.529Z,3.86
2017-01-08T03:19:24.540Z,3.87
2017-01-08T03:20:24.552Z,3.87
2017-01-08T03:21:24.558Z,3.84
2017-01-08T03:22:24.565Z,3.91
2017-01-08T03:23:24.577Z,3.86
2017-01-08T03:24:24.588Z,3.87
2017-01-08T03:25:24.590Z,3.84
2017-01-08T03:26:24.601Z,3.99
2017-01-08T03:27:24.625Z,3.88
2017-01-08T03:28:24.627Z,3.88
2017-01-08T03:29:24.637Z,3.91
2017-01-08T03:30:24.644Z,3.91
2017-01-08T03:31:24.657Z,3.88
2017-01-08T03:32:24.662Z,3.87
2017-01-08T03:33:24.674Z,3.95
2017-01-08T03:34:24.684Z,3.91
2017-01-08T03:35:24.693Z,3.87
2017-01-08T03:36:24.702Z,3.96
2017-01-08T03:37:24.713Z,3.91
2017-01-08T03:38:24.724Z,3.92
2017-01-08T03:39:24.730Z,3.87
2017-01-08T03:40:24.742Z,3.87
2017-01-08T03:41:24.751Z,3.92
2017-01-08T03:42:24.767Z,3.91
2017-01-08T03:43:24.766Z,3.98
2017-01-08T03:44:24.810Z,4.01
2017-01-08T03:45:24.793Z,3.94
2017-01-08T03:46:24.804Z,3.92
2017-01-08T03:47:24.807Z,3.96
2017-01-08T03:48:24.824Z,4.01
2017-01-08T03:49:24.852Z,3.91
2017-01-08T03:50:24.864Z,3.92
2017-01-08T03:51:24.850Z,3.94
2017-01-08T03:52:24.860Z,3.94
2017-01-08T03:53:24.873Z,3.98
2017-01-08T03:54:24.884Z,3.96
2017-01-08T03:55:24.889Z,3.95
2017-01-08T03:56:24.898Z,3.95
2017-01-08T03:57:24.907Z,3.95
2017-01-08T03:58:24.915Z,3.98
2017-01-08T03:59:24.959Z,3.98
2017-01-08T04:00:24.939Z,4.02
2017-01-08T04:01:24.968Z,3.95
2017-01-08T04:02:24.958Z,4.01
2017-01-08T04:03:24.970Z,4.01
2017-01-08T04:04:24.977Z,3.95
2017-01-08T04:05:24.992Z,4.01
2017-01-08T04:06:24.999Z,4.01
2017-01-08T04:07:25.008Z,3.96
2017-01-08T04:08:25.014Z,3.94
2017-01-08T04:09:25.024Z,3.99
2017-01-08T04:10:25.030Z,4.01
2017-01-08T04:11:25.044Z,3.96
2017-01-08T04:12:25.052Z,4.05
2017-01-08T04:13:25.060Z,3.99
2017-01-08T04:14:25.078Z,4.04
2017-01-08T04:15:25.082Z,3.96
2017-01-08T04:16:25.088Z,4.01
2017-01-08T04:17:25.101Z,3.98
2017-01-08T04:18:25.194Z,4.06
2017-01-08T04:19:25.121Z,4.05
2017-01-08T04:20:25.143Z,4.02
2017-01-08T04:21:25.142Z,4.01
2017-01-08T04:22:25.152Z,4.08
2017-01-08T04:23:25.165Z,4.08
2017-01-08T04:24:25.197Z,4.12
2017-01-08T04:25:25.183Z,3.98
2017-01-08T04:26:25.194Z,4.06
2017-01-08T04:27:25.204Z,4.01
2017-01-08T04:28:25.213Z,4.08
2017-01-08T04:29:25.222Z,4.01
2017-01-08T04:30:25.234Z,4.01
2017-01-08T04:31:25.242Z,4.04
2017-01-08T04:32:25.264Z,4.02
2017-01-08T04:33:25.271Z,4.01
2017-01-08T04:34:25.276Z,4.13
2017-01-08T04:35:25.282Z,4.02
2017-01-08T04:36:25.290Z,4.02
2017-01-08T04:37:25.304Z,4.13
2017-01-08T04:38:25.315Z,4.1
2017-01-08T04:39:25.324Z,4.08
2017-01-08T04:40:25.332Z,4.02
2017-01-08T04:41:25.342Z,4.04
2017-01-08T04:42:25.355Z,4.13
2017-01-08T04:43:25.364Z,3.99
2017-01-08T04:44:25.372Z,4.06
2017-01-08T04:45:25.392Z,4.16
2017-01-08T04:46:25.392Z,4.12
2017-01-08T04:47:25.402Z,4.1
2017-01-08T04:48:25.413Z,4.16
2017-01-08T04:49:25.423Z,4.08
2017-01-08T04:50:25.428Z,4.14
2017-01-08T04:51:25.443Z,4.08
2017-01-08T04:52:25.450Z,4.1
2017-01-08T04:53:25.461Z,4.14
2017-01-08T04:54:25.467Z,4.16
2017-01-08T04:55:25.483Z,4.12
2017-01-08T04:56:25.489Z,4.16
2017-01-08T04:57:25.503Z,4.12
2017-01-08T04:58:25.510Z,4.17
2017-01-08T04:59:25.522Z,4.19
2017-01-08T05:00:25.533Z,4.19
2017-01-08T05:01:25.539Z,4.14
2017-01-08T05:02:25.551Z,4.14
2017-01-08T05:03:25.557Z,4.17
2017-01-08T05:04:25.568Z,4.13
2017-01-08T05:05:25.594Z,4.14
2017-01-08T05:06:25.586Z,4.2
2017-01-08T05:07:25.602Z,4.16
2017-01-08T05:08:25.613Z,4.14
2017-01-08T05:09:25.623Z,4.14
2017-01-08T05:10:25.630Z,4.19
2017-01-08T05:11:25.640Z,4.17
2017-01-08T05:12:25.680Z,4.17
2017-01-08T05:13:25.668Z,4.24
2017-01-08T05:14:25.672Z,4.24
2017-01-08T05:15:25.686Z,4.23
2017-01-08T05:16:25.693Z,4.14
2017-01-08T05:17:25.702Z,4.22
2017-01-08T05:18:25.709Z,4.17
2017-01-08T05:19:25.725Z,4.2
2017-01-08T05:20:25.739Z,4.23
2017-01-08T05:21:25.750Z,4.08
2017-01-08T05:22:25.773Z,4.23
2017-01-08T05:23:25.767Z,4.1
2017-01-08T05:24:25.775Z,4.24
2017-01-08T05:25:25.791Z,4.19
2017-01-08T05:26:25.795Z,4.12
2017-01-08T05:27:25.812Z,4.22
2017-01-08T05:28:25.816Z,4.12
2017-01-08T05:29:26.223Z,4.19
2017-01-08T05:30:25.837Z,4.08
2017-01-08T05:31:25.843Z,4.26
2017-01-08T05:32:25.859Z,4.13
2017-01-08T05:33:25.861Z,4.23
2017-01-08T05:34:25.876Z,4.1
2017-01-08T05:35:25.881Z,4.23
2017-01-08T05:36:25.892Z,4.2
2017-01-08T05:37:25.899Z,4.24
2017-01-08T05:38:25.915Z,4.24
2017-01-08T05:39:25.927Z,4.12
2017-01-08T05:40:25.943Z,4.28
2017-01-08T05:41:25.945Z,4.24
2017-01-08T05:42:25.955Z,4.19
2017-01-08T05:43:25.966Z,4.26
2017-01-08T05:44:25.973Z,4.28
2017-01-08T05:45:25.997Z,4.26
2017-01-08T05:46:25.994Z,4.24
2017-01-08T05:47:26.003Z,4.23
2017-01-08T05:48:26.015Z,4.14
2017-01-08T05:49:26.027Z,4.2
2017-01-08T05:50:26.040Z,4.23
2017-01-08T05:51:26.046Z,4.13
2017-01-08T05:52:26.053Z,4.19
2017-01-08T05:53:26.068Z,4.19
2017-01-08T05:54:26.076Z,4.22
2017-01-08T05:55:26.086Z,4.2
2017-01-08T05:56:26.095Z,4.22
2017-01-08T05:57:26.102Z,4.2
2017-01-08T05:58:26.127Z,4.26
2017-01-08T05:59:26.121Z,4.23
2017-01-08T06:00:26.132Z,4.2
2017-01-08T06:01:26.145Z,4.22
2017-01-08T06:02:26.157Z,4.17
2017-01-08T06:03:26.166Z,4.3
2017-01-08T06:04:26.175Z,4.28
2017-01-08T06:05:26.187Z,4.22
2017-01-08T06:06:26.221Z,4.34
2017-01-08T06:07:26.220Z,4.22
2017-01-08T06:08:26.215Z,4.31
2017-01-08T06:09:26.227Z,4.14
2017-01-08T06:10:26.236Z,4.32
2017-01-08T06:11:26.246Z,4.24
2017-01-08T06:12:26.258Z,4.23
2017-01-08T06:13:26.270Z,4.34
2017-01-08T06:14:26.286Z,4.24
2017-01-08T06:15:26.284Z,4.3
2017-01-08T06:16:26.298Z,4.32
2017-01-08T06:17:26.312Z,4.24
2017-01-08T06:18:26.322Z,4.3
2017-01-08T06:19:26.338Z,4.23
2017-01-08T06:20:26.339Z,4.3
2017-01-08T06:21:26.354Z,4.26
2017-01-08T06:22:26.353Z,4.26
2017-01-08T06:23:26.372Z,4.28
2017-01-08T06:24:26.380Z,4.35
2017-01-08T06:25:26.393Z,4.28
2017-01-08T06:26:26.400Z,4.28
2017-01-08T06:27:26.408Z,4.32
2017-01-08T06:28:26.421Z,4.26
2017-01-08T06:29:26.430Z,4.3
2017-01-08T06:30:26.442Z,4.31
2017-01-08T06:31:26.450Z,4.32
2017-01-08T06:32:26.463Z,4.31
2017-01-08T06:33:26.470Z,4.32
2017-01-08T06:34:26.480Z,4.3
2017-01-08T06:35:26.492Z,4.3
2017-01-08T06:36:26.501Z,4.28
2017-01-08T06:37:26.515Z,4.31
2017-01-08T06:38:26.524Z,4.28
2017-01-08T06:39:26.531Z,4.31
2017-01-08T06:40:26.541Z,4.32
2017-01-08T06:41:26.553Z,4.24
2017-01-08T06:42:26.560Z,4.24
2017-01-08T06:43:26.575Z,4.32
2017-01-08T06:44:26.581Z,4.31
2017-01-08T06:45:26.595Z,4.26
2017-01-08T06:46:26.605Z,4.3
2017-01-08T06:47:26.619Z,4.31
2017-01-08T06:48:26.627Z,4.28
2017-01-08T06:49:26.637Z,4.34
2017-01-08T06:50:26.649Z,4.3
2017-01-08T06:51:26.656Z,4.37
2017-01-08T06:52:26.669Z,4.28
2017-01-08T06:53:26.677Z,4.31
2017-01-08T06:54:26.689Z,4.32
2017-01-08T06:55:26.699Z,4.34
2017-01-08T06:56:26.709Z,4.3
2017-01-08T06:57:26.723Z,4.31
2017-01-08T06:58:26.729Z,4.34
2017-01-08T06:59:26.735Z,4.3
2017-01-08T07:00:26.748Z,4.37
2017-01-08T07:01:26.759Z,4.34
2017-01-08T07:02:26.771Z,4.34
2017-01-08T07:03:26.782Z,4.34
2017-01-08T07:04:26.792Z,4.35
2017-01-08T07:05:26.799Z,4.41
2017-01-08T07:06:26.810Z,4.35
2017-01-08T07:07:26.821Z,4.37
2017-01-08T07:08:26.837Z,4.35
2017-01-08T07:09:26.843Z,4.34
2017-01-08T07:10:26.850Z,4.4
2017-01-08T07:11:26.865Z,4.35
2017-01-08T07:12:26.874Z,4.37
2017-01-08T07:13:26.887Z,4.35
2017-01-08T07:14:26.897Z,4.4
2017-01-08T07:15:26.902Z,4.32
2017-01-08T07:16:26.915Z,4.28
2017-01-08T07:17:26.924Z,4.37
2017-01-08T07:18:26.934Z,4.34
2017-01-08T07:19:26.948Z,4.41
2017-01-08T07:20:26.956Z,4.31
2017-01-08T07:21:26.962Z,4.31
2017-01-08T07:22:26.971Z,4.35
2017-01-08T07:23:26.986Z,4.37
2017-01-08T07:24:26.994Z,4.37
2017-01-08T07:25:27.012Z,4.38
2017-01-08T07:26:27.018Z,4.35
2017-01-08T07:27:27.025Z,4.37
2017-01-08T07:28:27.034Z,4.34
2017-01-08T07:29:27.049Z,4.44
2017-01-08T07:30:27.055Z,4.34
2017-01-08T07:31:27.066Z,4.41
2017-01-08T07:32:27.074Z,4.32
2017-01-08T07:33:27.086Z,4.3
2017-01-08T07:34:27.097Z,4.37
2017-01-08T07:35:27.106Z,4.38
2017-01-08T07:36:27.117Z,4.4
2017-01-08T07:37:27.126Z,4.42
2017-01-08T07:38:27.144Z,4.35
2017-01-08T07:39:27.147Z,4.42
2017-01-08T07:40:27.157Z,4.41
2017-01-08T07:41:27.169Z,4.37
2017-01-08T07:42:27.180Z,4.37
2017-01-08T07:43:27.187Z,4.5
2017-01-08T07:44:27.199Z,4.41
2017-01-08T07:45:27.208Z,4.38
2017-01-08T07:46:27.218Z,4.35
2017-01-08T07:47:27.232Z,4.44
2017-01-08T07:48:27.235Z,4.4
2017-01-08T07:49:27.249Z,4.44
2017-01-08T07:50:27.259Z,4.42
2017-01-08T07:51:27.267Z,4.42
2017-01-08T07:52:27.278Z,4.44
2017-01-08T07:53:27.290Z,4.42
2017-01-08T07:54:27.296Z,4.42
2017-01-08T07:55:27.310Z,4.45
2017-01-08T07:56:27.323Z,4.42
2017-01-08T07:57:27.329Z,4.48
2017-01-08T07:58:27.343Z,4.41
2017-01-08T07:59:27.360Z,4.53
2017-01-08T08:00:27.367Z,4.49
2017-01-08T08:01:27.375Z,4.49
2017-01-08T08:02:27.391Z,4.49
2017-01-08T08:03:27.387Z,4.45
2017-01-08T08:04:27.413Z,4.49
2017-01-08T08:05:27.410Z,4.49
2017-01-08T08:06:27.423Z,4.44
2017-01-08T08:07:27.433Z,4.49
2017-01-08T08:08:27.440Z,4.48
2017-01-08T08:09:27.447Z,4.52
2017-01-08T08:10:27.464Z,4.45
2017-01-08T08:11:27.476Z,4.49
2017-01-08T08:12:27.490Z,4.5
2017-01-08T08:13:27.494Z,4.52
2017-01-08T08:14:27.506Z,4.5
2017-01-08T08:15:27.567Z,4.49
2017-01-08T08:16:27.529Z,4.52
2017-01-08T08:17:27.549Z,4.45
2017-01-08T08:18:27.551Z,4.48
2017-01-08T08:19:27.555Z,4.48
2017-01-08T08:20:27.568Z,4.48
2017-01-08T08:21:27.579Z,4.49
2017-01-08T08:22:27.583Z,4.55
2017-01-08T08:23:27.593Z,4.49
2017-01-08T08:24:27.605Z,4.5
2017-01-08T08:25:27.620Z,4.53
2017-01-08T08:26:27.625Z,4.49
2017-01-08T08:27:27.646Z,4.44
2017-01-08T08:28:27.645Z,4.53
2017-01-08T08:29:27.661Z,4.42
2017-01-08T08:30:27.667Z,4.49
2017-01-08T08:31:27.677Z,4.52
2017-01-08T08:32:27.695Z,4.55
2017-01-08T08:33:27.810Z,4.5
2017-01-08T08:34:27.707Z,4.45
2017-01-08T08:35:27.720Z,4.45
2017-01-08T08:36:27.728Z,4.5
2017-01-08T08:37:27.737Z,4.45
2017-01-08T08:38:27.864Z,4.49
2017-01-08T08:39:27.759Z,4.49
2017-01-08T08:40:27.776Z,4.45
2017-01-08T08:41:27.780Z,4.5
2017-01-08T08:42:27.789Z,4.41
2017-01-08T08:43:27.833Z,4.48
2017-01-08T08:44:27.807Z,4.49
2017-01-08T08:45:27.933Z,4.52
2017-01-08T08:46:27.830Z,4.55
2017-01-08T08:47:27.911Z,4.52
2017-01-08T08:48:27.852Z,4.58
2017-01-08T08:49:27.986Z,4.52
2017-01-08T08:50:27.871Z,4.58
2017-01-08T08:51:28.008Z,4.55
2017-01-08T08:52:28.003Z,4.58
2017-01-08T08:53:27.907Z,4.52
2017-01-08T08:54:28.027Z,4.52
2017-01-08T08:55:28.018Z,4.53
2017-01-08T08:56:28.049Z,4.55
2017-01-08T08:57:27.947Z,4.58
2017-01-08T08:58:27.954Z,4.56
2017-01-08T08:59:27.971Z,4.58
2017-01-08T09:00:28.004Z,4.58
2017-01-08T09:01:28.081Z,4.53
2017-01-08T09:02:27.999Z,4.53
2017-01-08T09:03:28.254Z,4.59
2017-01-08T09:04:28.014Z,4.56
2017-01-08T09:05:28.238Z,4.58
2017-01-08T09:06:28.146Z,4.55
2017-01-08T09:07:28.049Z,4.59
2017-01-08T09:08:28.055Z,4.59
2017-01-08T09:09:28.070Z,4.6
2017-01-08T09:10:28.077Z,4.6
2017-01-08T09:11:28.089Z,4.58
2017-01-08T09:12:28.211Z,4.58
2017-01-08T09:13:28.109Z,4.58
2017-01-08T09:14:28.119Z,4.62
2017-01-08T09:15:28.130Z,4.6
2017-01-08T09:16:28.133Z,4.58
2017-01-08T09:17:28.151Z,4.59
2017-01-08T09:18:28.274Z,4.58
2017-01-08T09:19:28.364Z,4.62
2017-01-08T09:20:28.181Z,4.6
2017-01-08T09:21:28.193Z,4.62
2017-01-08T09:22:28.316Z,4.62
2017-01-08T09:23:28.405Z,4.56
2017-01-08T09:24:28.226Z,4.59
2017-01-08T09:25:28.326Z,4.63
2017-01-08T09:26:28.364Z,4.59
2017-01-08T09:27:28.366Z,4.6
2017-01-08T09:28:28.266Z,4.62
2017-01-08T09:29:28.281Z,4.62
2017-01-08T09:30:28.398Z,4.58
2017-01-08T09:31:28.296Z,4.56
2017-01-08T09:32:28.306Z,4.59
2017-01-08T09:33:28.425Z,4.6
2017-01-08T09:34:28.325Z,4.56
2017-01-08T09:35:28.334Z,4.62
2017-01-08T09:36:28.350Z,4.59
2017-01-08T09:37:28.471Z,4.58
2017-01-08T09:38:28.370Z,4.58
2017-01-08T09:39:28.490Z,4.58
2017-01-08T09:40:28.504Z,4.58
2017-01-08T09:41:28.511Z,4.58
2017-01-08T09:42:28.445Z,4.6
2017-01-08T09:43:28.420Z,4.58
2017-01-08T09:44:28.430Z,4.55
2017-01-08T09:45:28.441Z,4.63
2017-01-08T09:46:28.452Z,4.6
2017-01-08T09:47:28.462Z,4.58
2017-01-08T09:48:28.473Z,4.62
2017-01-08T09:49:28.482Z,4.58
2017-01-08T09:50:28.492Z,4.6
2017-01-08T09:51:28.619Z,4.67
2017-01-08T09:52:28.510Z,4.56
2017-01-08T09:53:28.523Z,4.56
2017-01-08T09:54:28.534Z,4.56
2017-01-08T09:55:28.545Z,4.56
2017-01-08T09:56:28.558Z,4.58
2017-01-08T09:57:28.597Z,4.71
2017-01-08T09:58:28.573Z,4.59
2017-01-08T09:59:28.582Z,4.6
2017-01-08T10:00:28.598Z,4.56
2017-01-08T10:01:28.606Z,4.58
2017-01-08T10:02:28.620Z,4.6
2017-01-08T10:03:28.631Z,4.6
2017-01-08T10:04:28.635Z,4.56
2017-01-08T10:05:28.650Z,4.74
2017-01-08T10:06:28.659Z,4.73
2017-01-08T10:07:28.669Z,4.56
2017-01-08T10:08:28.681Z,4.59
2017-01-08T10:09:28.691Z,4.71
2017-01-08T10:10:28.702Z,4.6
2017-01-08T10:11:28.718Z,4.71
2017-01-08T10:12:28.722Z,4.6
2017-01-08T10:13:28.733Z,4.63
2017-01-08T10:14:28.745Z,4.59
2017-01-08T10:15:28.757Z,4.58
2017-01-08T10:16:28.764Z,4.67
2017-01-08T10:17:28.777Z,4.53
2017-01-08T10:18:28.799Z,4.6
2017-01-08T10:19:28.795Z,4.7
2017-01-08T10:20:28.807Z,4.7
2017-01-08T10:21:28.810Z,4.62
2017-01-08T10:22:28.827Z,4.68
2017-01-08T10:23:28.838Z,4.68
2017-01-08T10:24:28.878Z,4.58
2017-01-08T10:25:28.867Z,4.62
2017-01-08T10:26:28.867Z,4.7
2017-01-08T10:27:28.883Z,4.67
2017-01-08T10:28:28.894Z,4.62
2017-01-08T10:29:28.901Z,4.59
2017-01-08T10:30:28.909Z,4.73
2017-01-08T10:31:28.921Z,4.71
2017-01-08T10:32:28.931Z,4.6
2017-01-08T10:33:28.946Z,4.7
2017-01-08T10:34:28.954Z,4.67
2017-01-08T10:35:28.960Z,4.56
2017-01-08T10:36:28.974Z,4.71
2017-01-08T10:37:28.983Z,4.63
2017-01-08T10:38:28.996Z,4.67
2017-01-08T10:39:29.000Z,4.63
2017-01-08T10:40:29.014Z,4.63
2017-01-08T10:41:29.025Z,4.74
2017-01-08T10:42:29.035Z,4.59
2017-01-08T10:43:29.077Z,4.66
2017-01-08T10:44:29.057Z,4.67
2017-01-08T10:45:29.061Z,4.71
2017-01-08T10:46:29.078Z,4.63
2017-01-08T10:47:29.084Z,4.58
2017-01-08T10:48:29.102Z,4.58
2017-01-08T10:49:29.104Z,4.63
2017-01-08T10:50:29.121Z,4.59
2017-01-08T10:51:29.125Z,4.59
2017-01-08T10:52:29.143Z,4.7
2017-01-08T10:53:29.150Z,4.63
2017-01-08T10:54:29.170Z,4.66
2017-01-08T10:55:29.166Z,4.58
2017-01-08T10:56:29.181Z,4.73
2017-01-08T10:57:29.193Z,4.67
2017-01-08T10:58:29.203Z,4.66
2017-01-08T10:59:29.213Z,4.73
2017-01-08T11:00:29.222Z,4.74
2017-01-08T11:01:29.230Z,4.62
2017-01-08T11:02:29.240Z,4.74
2017-01-08T11:03:29.253Z,4.74
2017-01-08T11:04:29.268Z,4.7
2017-01-08T11:05:29.275Z,4.73
2017-01-08T11:06:29.282Z,4.66
2017-01-08T11:07:29.296Z,4.66
2017-01-08T11:08:29.312Z,4.73
2017-01-08T11:09:29.317Z,4.67
2017-01-08T11:10:29.338Z,4.66
2017-01-08T11:11:29.339Z,4.71
2017-01-08T11:12:29.356Z,4.68
2017-01-08T11:13:29.368Z,4.71
2017-01-08T11:14:29.368Z,4.7
2017-01-08T11:15:29.386Z,4.73
2017-01-08T11:16:29.391Z,4.7
2017-01-08T11:17:29.403Z,4.78
2017-01-08T11:18:29.420Z,4.66
2017-01-08T11:19:29.429Z,4.71
2017-01-08T11:20:29.433Z,4.68
2017-01-08T11:21:29.447Z,4.71
2017-01-08T11:22:29.455Z,4.67
2017-01-08T11:23:29.469Z,4.73
2017-01-08T11:24:29.475Z,4.74
2017-01-08T11:25:29.485Z,4.68
2017-01-08T11:26:29.501Z,4.7
2017-01-08T11:27:29.505Z,4.68
2017-01-08T11:28:29.535Z,4.62
2017-01-08T11:29:29.528Z,4.74
2017-01-08T11:30:29.543Z,4.7
2017-01-08T11:31:29.955Z,4.67
2017-01-08T11:32:29.570Z,4.71
2017-01-08T11:33:29.571Z,4.73
2017-01-08T11:34:29.582Z,4.71
2017-01-08T11:35:29.588Z,4.67
2017-01-08T11:36:29.600Z,4.66
2017-01-08T11:37:29.631Z,4.7
2017-01-08T11:38:29.625Z,4.74
2017-01-08T11:39:29.635Z,4.63
2017-01-08T11:40:29.646Z,4.68
2017-01-08T11:41:29.655Z,4.66
2017-01-08T11:42:29.668Z,4.67
2017-01-08T11:43:29.671Z,4.7
2017-01-08T11:44:29.685Z,4.7
2017-01-08T11:45:29.696Z,4.7
2017-01-08T11:46:29.709Z,4.68
2017-01-08T11:47:29.720Z,4.71
2017-01-08T11:48:29.723Z,4.66
2017-01-08T11:49:29.740Z,4.66
2017-01-08T11:50:29.747Z,4.68
2017-01-08T11:51:29.763Z,4.68
2017-01-08T11:52:29.771Z,4.7
2017-01-08T11:53:29.782Z,4.74
2017-01-08T11:54:29.798Z,4.67
2017-01-08T11:55:29.802Z,4.63
2017-01-08T11:56:29.822Z,4.67
2017-01-08T11:57:29.825Z,4.6
2017-01-08T11:58:29.836Z,4.75
2017-01-08T11:59:29.849Z,4.67
2017-01-08T12:00:29.856Z,4.67
2017-01-08T12:01:29.866Z,4.7
2017-01-08T12:02:29.871Z,4.63
2017-01-08T12:03:29.889Z,4.63
2017-01-08T12:04:29.894Z,4.66
2017-01-08T12:05:29.904Z,4.58
2017-01-08T12:06:29.920Z,4.73
2017-01-08T12:07:29.928Z,4.63
2017-01-08T12:08:29.937Z,4.62
2017-01-08T12:09:29.945Z,4.7
2017-01-08T12:10:29.958Z,4.67
2017-01-08T12:11:29.968Z,4.7
2017-01-08T12:12:29.979Z,4.67
2017-01-08T12:13:30.051Z,4.74
2017-01-08T12:14:30.028Z,4.74
2017-01-08T12:15:30.016Z,4.78
2017-01-08T12:16:30.023Z,4.73
2017-01-08T12:17:30.036Z,4.58
2017-01-08T12:18:30.046Z,4.71
2017-01-08T12:19:30.057Z,4.73
2017-01-08T12:20:30.068Z,4.67
2017-01-08T12:21:30.075Z,4.74
2017-01-08T12:22:30.081Z,4.68
2017-01-08T12:23:30.099Z,4.74
2017-01-08T12:24:30.106Z,4.71
2017-01-08T12:25:30.126Z,4.68
2017-01-08T12:26:30.138Z,4.68
2017-01-08T12:27:30.138Z,4.7
2017-01-08T12:28:30.152Z,4.75
2017-01-08T12:29:30.156Z,4.74
2017-01-08T12:30:30.168Z,4.67
2017-01-08T12:31:30.181Z,4.68
2017-01-08T12:32:30.194Z,4.68
2017-01-08T12:33:30.199Z,4.71
2017-01-08T12:34:30.211Z,4.74
2017-01-08T12:35:30.226Z,4.74
2017-01-08T12:36:30.240Z,4.7
2017-01-08T12:37:30.245Z,4.67
2017-01-08T12:38:30.260Z,4.68
2017-01-08T12:39:30.268Z,4.74
2017-01-08T12:40:30.307Z,4.71
2017-01-08T12:41:30.289Z,4.74
2017-01-08T12:42:30.297Z,4.7
2017-01-08T12:43:30.309Z,4.7
2017-01-08T12:44:30.316Z,4.68
2017-01-08T12:45:30.326Z,4.7
2017-01-08T12:46:30.339Z,4.7
2017-01-08T12:47:30.354Z,4.73
2017-01-08T12:48:30.357Z,4.71
2017-01-08T12:49:30.369Z,4.73
2017-01-08T12:50:30.388Z,4.7
2017-01-08T12:51:30.391Z,4.71
2017-01-08T12:52:30.398Z,4.67
2017-01-08T12:53:30.411Z,4.7
2017-01-08T12:54:30.424Z,4.7
2017-01-08T12:55:30.433Z,4.73
2017-01-08T12:56:30.442Z,4.68
2017-01-08T12:57:30.456Z,4.7
2017-01-08T12:58:30.464Z,4.74
2017-01-08T12:59:30.474Z,4.74
2017-01-08T13:00:30.492Z,4.66
2017-01-08T13:01:30.501Z,4.74
2017-01-08T13:02:30.509Z,4.7
2017-01-08T13:03:30.516Z,4.7
2017-01-08T13:04:30.527Z,4.68
2017-01-08T13:05:30.541Z,4.68
2017-01-08T13:06:30.547Z,4.68
2017-01-08T13:07:30.597Z,4.75
2017-01-08T13:08:30.566Z,4.75
2017-01-08T13:09:30.580Z,4.74
2017-01-08T13:10:30.590Z,4.68
2017-01-08T13:11:30.633Z,4.67
2017-01-08T13:12:30.671Z,4.8
2017-01-08T13:13:30.623Z,4.68
2017-01-08T13:14:30.636Z,4.74
2017-01-08T13:15:30.645Z,4.71
2017-01-08T13:16:30.654Z,4.67
2017-01-08T13:17:30.664Z,4.68
2017-01-08T13:18:30.675Z,4.63
2017-01-08T13:19:30.694Z,4.73
2017-01-08T13:20:30.696Z,4.68
2017-01-08T13:21:30.707Z,4.74
2017-01-08T13:22:30.726Z,4.68